Charleville, Queensland

3:17 PM AEST on November 22, 2014 (GMT +1000)
Charleville | Change Station
CLOSE
Current Station
Airport
Location: Charleville,
Elevation: 994 ft
Nearby Weather Stations

Elev 994 ft 26.41 °S, 146.26 °E | Updated 1 hour ago

Clear
Clear
106 °F
Feels Like 106 °F
N
6
Wind Variable Wind from North

Today
High -- | Low -- °F
--% Chance of Precip.
Yesterday
High -- | Low -- °F
Precip. -- in
5:15 AM 6:46 PM
Waning Crescent, 0% visible
Pressure 29.80 in
Visibility 6.2 miles
Clouds
Dew Point 43 °F
Humidity 12%
Rainfall 0.00 in
Snow Depth Not available.
UV Not available.
Pollen Not available.
Air Quality Not available.
Flu Activity Not available.
METAR YBCV 220400Z AUTO 01005KT 9999 // NCD 41/06 Q1009

More Conditions Fewer Conditions

Pressure 29.80 in
Visibility 6.2 miles
Clouds
Dew Point 43 °F
Humidity 12%
Rainfall 0.00 in
Snow Depth Not available.
UV Not available.
Pollen Not available.
Air Quality Not available.
Flu Activity Not available.
METAR YBCV 220400Z AUTO 01005KT 9999 // NCD 41/06 Q1009

More Conditions Fewer Conditions

10-Day Weather Forecast

Almanac

Astronomy

Nov. 22, 2014 Rise Set
Actual Time
Civil Twilight
Nautical Twilight
Astronomical Twilight
Moon
Length of Visible Light
Length of Day
Tomorrow will be .
, % of the Moon is Illuminated

Today's Extremes

Country Highs Country Lows

Community

WunderPhotos

Upload Photos

1,772,774 photos uploaded!

WunderBlogs® & News

Nearby

Air Quality

  Air Quality AQ Index Pollutant
Not available.

Snow Depth

Station Depth Elevation

Earthquake Activity

City Distance Mag. Time & Date
Minimum magnitude displayed is 2.5.

Coastal Water Temperatures

Place Temperature

Nearby Weather Stations